CDT,Max TemperatureF,Mean TemperatureF,Min TemperatureF,Max Dew PointF,MeanDew PointF,Min DewpointF,Max Humidity, Mean Humidity, Min Humidity, Max Sea Level PressureIn, Mean Sea Level PressureIn, Min Sea Level PressureIn, Max VisibilityMiles, Mean VisibilityMiles, Min VisibilityMiles, Max Wind SpeedMPH, Mean Wind SpeedMPH, Max Gust SpeedMPH,PrecipitationIn, CloudCover, Events, WindDirDegrees
2011-10-1,64,50,35,39,34,27,93,65,24,30.37,30.30,30.22,10,10,10,6,3,,0.00,0,,51
2011-10-2,75,54,33,43,33,23,93,57,15,30.31,30.25,30.18,10,10,10,6,3,,0.00,0,,164
2011-10-3,80,58,35,45,32,18,93,53,10,30.27,30.22,30.18,10,10,7,6,1,,0.00,0,,138
2011-10-4,86,65,44,39,33,25,81,39,11,30.27,30.20,30.13,10,10,10,12,6,17,0.00,0,,147
2011-10-5,86,68,50,46,39,32,76,42,14,30.20,30.15,30.09,10,10,10,12,6,17,0.00,0,,149
2011-10-6,84,68,51,48,43,37,77,48,19,30.17,30.12,30.05,10,10,4,17,7,24,0.00,0,,141
2011-10-7,86,74,62,52,47,39,63,43,20,30.15,30.11,30.06,10,10,7,25,12,30,0.00,0,,156
2011-10-8,86,72,57,52,48,43,77,47,23,30.20,30.16,30.12,10,10,7,18,10,25,0.00,0,,160
2011-10-9,82,68,53,54,49,43,88,56,25,30.28,30.21,30.14,10,10,10,15,6,22,0.00,0,,136
2011-10-10,78,66,53,57,50,46,82,62,38,30.14,30.05,29.97,10,10,10,10,5,,0.01,3,Rain,140
2011-10-11,80,66,51,59,53,45,94,65,30,29.99,29.93,29.85,10,9,0,9,2,18,0.00,3,Fog,145
2011-10-12,71,65,59,63,57,54,88,83,69,29.84,29.73,29.62,10,9,2,16,5,22,0.82,5,Rain,148
2011-10-13,71,62,53,55,48,36,94,65,27,29.70,29.67,29.64,10,9,5,22,11,31,0.00,3,,293
2011-10-14,62,53,44,41,37,30,81,55,31,29.90,29.81,29.71,10,10,10,23,11,31,0.00,1,,279
2011-10-15,69,54,39,37,33,27,81,51,20,30.03,29.97,29.88,10,10,10,16,8,23,0.00,0,,262
2011-10-16,62,55,48,41,37,28,76,53,27,29.98,29.89,29.77,10,10,10,15,6,22,0.00,1,,300
2011-10-17,51,43,35,43,36,30,87,74,54,30.03,29.98,29.92,10,10,10,9,3,,0.03,3,Rain,259
2011-10-18,51,46,42,39,34,32,81,62,47,29.98,29.93,29.88,10,10,10,17,6,24,0.00,4,,320
2011-10-19,51,46,42,36,33,32,76,61,47,29.96,29.93,29.91,10,10,10,20,11,29,0.00,8,Rain,342
2011-10-20,57,45,33,32,31,27,93,62,33,29.99,29.91,29.87,10,10,10,22,11,32,0.00,2,,310
2011-10-21,64,47,30,34,29,27,93,61,26,30.14,30.09,30.02,10,10,7,8,3,,0.00,0,,266
2011-10-22,69,54,39,37,34,30,76,52,23,30.10,30.06,30.04,10,10,7,7,3,,0.00,1,,290
2011-10-23,75,58,41,48,41,36,93,57,25,30.02,29.94,29.86,10,10,7,15,3,23,0.08,3,Rain,222
2011-10-24,75,54,33,45,38,32,93,60,22,30.14,30.07,29.98,10,10,10,13,4,,0.00,0,,232
2011-10-25,78,68,57,52,48,39,72,49,36,29.93,29.78,29.68,10,10,7,22,12,31,0.01,2,,212
2011-10-26,55,50,46,43,39,36,81,67,51,30.05,29.99,29.87,10,10,7,16,10,22,0.00,7,,341
2011-10-27,57,44,32,37,31,19,81,60,25,30.14,30.09,30.04,10,10,5,14,4,17,0.00,4,Rain,305
2011-10-28,62,46,30,32,25,21,87,54,20,30.17,30.12,30.05,10,10,7,18,5,23,0.00,2,,248
2011-10-29,60,45,30,27,21,14,75,46,16,30.14,30.08,30.00,10,10,2,8,5,,0.00,0,,245
2011-10-30,59,50,39,43,35,23,87,57,33,29.99,29.92,29.88,10,10,5,25,12,29,0.07,4,Rain,229
2011-10-31,55,44,32,34,29,25,87,64,31,30.12,30.06,30.01,10,10,10,10,7,,0.00,1,,260